Time;durP1;ratioP1;P1;durP2;ratioP2;P2;SDS_P1;SDS_P2;PMS_P1;PMS_P2;Temp;Humidity;BMP_temperature;BMP_pressure;BME280_temperature;BME280_humidity;BME280_pressure;Samples;Min_cycle;Max_cycle;Signal;HPM_P1;HPM_P2
2023/09/06 02:15:23;;;;;;;19.47;15.40;;;;;;;15.86;100.00;98224.84;10577995;27;20408;-54
2023/09/06 02:20:22;;;;;;;17.60;14.98;;;;;;;16.25;100.00;98222.50;10579036;27;20062;-54
2023/09/06 02:25:29;;;;;;;15.93;12.45;;;;;;;16.53;100.00;98217.66;10576417;27;20531;-54
2023/09/06 02:30:28;;;;;;;17.13;13.68;;;;;;;16.73;100.00;98225.16;10576815;27;20050;-54
2023/09/06 02:35:27;;;;;;;16.80;13.13;;;;;;;16.87;99.73;98233.66;10577283;27;20138;-54
2023/09/06 02:40:26;;;;;;;16.23;13.05;;;;;;;17.01;99.10;98232.56;10578035;27;20444;-54
2023/09/06 02:45:36;;;;;;;13.70;11.88;;;;;;;16.97;98.16;98210.75;10578179;27;20392;-54
2023/09/06 02:50:35;;;;;;;14.50;12.35;;;;;;;17.18;97.04;98219.97;10559109;27;20058;-55
2023/09/06 02:55:35;;;;;;;13.15;11.73;;;;;;;17.24;96.33;98221.59;10578016;27;20473;-54
2023/09/06 03:00:36;;;;;;;16.42;10.95;;;;;;;17.31;95.50;98212.72;10577582;27;20090;-55
2023/09/06 03:05:41;;;;;;;15.48;11.05;;;;;;;17.36;94.71;98218.72;10576862;27;20077;-55
2023/09/06 03:10:40;;;;;;;16.33;11.13;;;;;;;17.25;94.10;98192.72;10576904;27;20097;-55
2023/09/06 03:15:43;;;;;;;15.63;10.88;;;;;;;17.37;93.17;98212.56;10552880;27;20546;-55
2023/09/06 03:20:42;;;;;;;14.82;11.27;;;;;;;17.35;92.75;98222.22;10548829;27;20058;-55
2023/09/06 03:25:41;;;;;;;17.50;12.75;;;;;;;16.93;92.59;98177.63;10548443;27;20041;-55
2023/09/06 03:30:41;;;;;;;19.45;12.52;;;;;;;17.20;92.90;98236.53;10548255;27;20610;-55
2023/09/06 03:35:45;;;;;;;13.70;12.23;;;;;;;17.18;93.09;98250.56;10528996;27;20063;-55
2023/09/06 03:40:44;;;;;;;18.98;15.10;;;;;;;17.17;93.17;98252.34;10547659;27;20502;-55
2023/09/06 03:45:55;;;;;;;16.80;14.52;;;;;;;17.15;93.38;98243.63;10546799;27;20059;-54
2023/09/06 03:50:55;;;;;;;17.45;13.48;;;;;;;17.19;93.17;98245.31;10541360;27;20047;-54
2023/09/06 03:56:00;;;;;;;18.15;15.02;;;;;;;17.19;93.01;98250.56;10545683;27;20485;-55
2023/09/06 04:00:59;;;;;;;17.27;14.30;;;;;;;17.21;93.09;98247.88;10522413;27;20047;-55
2023/09/06 04:05:59;;;;;;;14.05;11.73;;;;;;;17.25;92.74;98260.91;10504190;28;20110;-55
2023/09/06 04:10:58;;;;;;;18.98;12.85;;;;;;;17.29;92.45;98259.97;10511493;27;20063;-55
2023/09/06 04:15:56;;;;;;;17.10;12.52;;;;;;;17.34;92.19;98255.47;10496862;28;20080;-55
2023/09/06 04:20:59;;;;;;;15.75;11.10;;;;;;;17.39;92.10;98260.63;10505651;27;20081;-54
2023/09/06 04:26:00;;;;;;;16.38;12.93;;;;;;;17.38;92.20;98240.56;10538451;27;20070;-54
2023/09/06 04:31:00;;;;;;;20.40;13.32;;;;;;;17.51;92.14;98247.25;10539363;27;20054;-55
2023/09/06 04:36:01;;;;;;;13.85;12.13;;;;;;;17.62;91.52;98244.41;10512212;27;20110;-55
2023/09/06 04:40:59;;;;;;;15.75;11.70;;;;;;;17.72;91.23;98247.69;10536721;27;20106;-55
2023/09/06 04:45:59;;;;;;;14.70;11.20;;;;;;;17.82;91.09;98251.00;10526149;27;20026;-55
2023/09/06 04:50:59;;;;;;;13.63;11.18;;;;;;;17.91;90.42;98256.06;10525164;27;20066;-55
2023/09/06 04:55:59;;;;;;;20.60;14.38;;;;;;;17.94;88.83;98261.22;10501829;27;20517;-55
2023/09/06 05:01:04;;;;;;;21.15;15.95;;;;;;;17.86;88.56;98236.94;10500924;27;20768;-55
2023/09/06 05:06:03;;;;;;;18.67;11.80;;;;;;;18.15;87.70;98258.13;10535587;27;20077;-55
2023/09/06 05:11:03;;;;;;;15.90;10.45;;;;;;;18.24;86.28;98253.56;10492675;27;20477;-55
2023/09/06 05:16:02;;;;;;;17.95;10.48;;;;;;;18.32;85.86;98257.72;10507114;27;20051;-55
2023/09/06 05:21:04;;;;;;;19.10;12.85;;;;;;;18.43;85.61;98256.59;10535129;27;20808;-55
2023/09/06 05:26:03;;;;;;;17.13;12.27;;;;;;;18.54;85.94;98271.19;10525276;27;20073;-55
2023/09/06 05:31:03;;;;;;;18.98;12.32;;;;;;;18.63;85.88;98272.75;10506544;27;20027;-55
2023/09/06 05:36:03;;;;;;;16.08;11.27;;;;;;;18.69;85.74;98269.09;10515991;27;20071;-55
2023/09/06 05:41:02;;;;;;;16.85;11.40;;;;;;;18.80;85.71;98275.81;10511943;27;20047;-55
2023/09/06 05:46:03;;;;;;;17.63;11.45;;;;;;;18.88;84.28;98278.28;10511472;27;20055;-55
2023/09/06 05:51:02;;;;;;;13.15;8.77;;;;;;;18.98;82.30;98279.75;10534942;27;20047;-55
2023/09/06 05:56:01;;;;;;;18.52;8.75;;;;;;;18.99;80.40;98278.84;10534858;27;20054;-55
2023/09/06 06:01:00;;;;;;;13.75;8.73;;;;;;;18.88;79.99;98288.78;10494542;28;20022;-55
2023/09/06 06:05:59;;;;;;;12.77;9.02;;;;;;;18.61;80.66;98291.16;10529512;27;20027;-54
2023/09/06 06:10:58;;;;;;;11.52;9.23;;;;;;;18.74;81.08;98288.28;10514460;28;20476;-55
2023/09/06 06:15:57;;;;;;;11.00;7.50;;;;;;;18.61;78.28;98299.06;10492782;28;20753;-55
2023/09/06 06:20:58;;;;;;;9.43;7.30;;;;;;;18.39;78.63;98279.47;10492151;28;20135;-54
2023/09/06 06:25:57;;;;;;;9.90;6.70;;;;;;;18.68;76.21;98293.66;10492134;28;20051;-54
2023/09/06 06:30:56;;;;;;;7.50;6.07;;;;;;;19.00;75.06;98308.66;10493076;28;20047;-54
2023/09/06 06:35:55;;;;;;;10.60;6.18;;;;;;;19.35;74.73;98312.09;10492437;28;20021;-54
2023/09/06 06:40:54;;;;;;;8.63;6.13;;;;;;;19.47;71.24;98313.53;10475579;28;20055;-54
2023/09/06 06:45:54;;;;;;;14.23;8.10;;;;;;;19.59;70.72;98316.69;10508202;28;20019;-54
2023/09/06 06:50:53;;;;;;;12.63;6.85;;;;;;;19.71;68.31;98323.38;10516219;27;20111;-55
2023/09/06 06:55:52;;;;;;;11.35;6.43;;;;;;;19.62;68.53;98328.91;10536401;27;20134;-54
2023/09/06 07:00:51;;;;;;;8.60;6.13;;;;;;;19.71;69.56;98330.44;10519053;27;20110;-54
2023/09/06 07:05:50;;;;;;;10.90;6.05;;;;;;;19.91;67.39;98328.09;10532267;27;20023;-54
2023/09/06 07:10:49;;;;;;;7.97;5.95;;;;;;;19.73;65.97;98328.63;10534182;27;20123;-54
2023/09/06 07:15:48;;;;;;;9.73;6.00;;;;;;;19.81;65.51;98293.25;10540733;27;20070;-55
2023/09/06 07:20:47;;;;;;;9.18;6.45;;;;;;;20.03;66.50;98313.69;10538067;27;20061;-55
2023/09/06 07:25:47;;;;;;;11.73;6.30;;;;;;;20.06;66.53;98319.69;10535493;27;20130;-55
2023/09/06 07:30:46;;;;;;;10.30;6.38;;;;;;;20.18;66.02;98313.19;10539205;27;20046;-55
2023/09/06 07:35:45;;;;;;;7.43;5.70;;;;;;;20.41;65.51;98296.69;10540455;27;20051;-54
2023/09/06 07:40:44;;;;;;;22.52;6.20;;;;;;;20.77;62.52;98303.44;10521668;27;20043;-54
2023/09/06 07:45:42;;;;;;;11.98;6.13;;;;;;;20.97;60.71;98308.91;10524065;27;20103;-54
2023/09/06 07:50:41;;;;;;;8.60;5.25;;;;;;;20.86;59.85;98269.69;10534651;27;20058;-55
2023/09/06 07:55:43;;;;;;;7.93;5.30;;;;;;;21.19;59.17;98256.22;10540093;27;20023;-55
2023/09/06 08:00:43;;;;;;;10.75;5.53;;;;;;;21.79;58.59;98304.25;10522256;27;20049;-55
2023/09/06 08:05:42;;;;;;;9.27;5.47;;;;;;;;;;10537545;27;20611;-55
2023/09/06 08:10:41;;;;;;;8.48;5.55;;;;;;;22.20;57.24;98298.31;10530208;27;20118;-55
2023/09/06 08:15:41;;;;;;;7.82;5.80;;;;;;;22.37;54.95;98299.38;10536903;27;20038;-55
2023/09/06 08:20:40;;;;;;;10.63;5.53;;;;;;;22.56;55.79;98298.63;10534539;27;20151;-55
2023/09/06 08:25:39;;;;;;;8.05;5.25;;;;;;;22.98;56.02;98305.75;10538217;27;20106;-55
2023/09/06 08:30:38;;;;;;;8.05;4.68;;;;;;;22.99;52.60;98303.00;10533817;27;20054;-55
2023/09/06 08:35:37;;;;;;;8.35;4.72;;;;;;;23.09;52.97;98299.97;10522024;27;20544;-55
2023/09/06 08:40:37;;;;;;;8.98;5.28;;;;;;;23.15;52.33;98303.22;10514919;27;20412;-55
2023/09/06 08:45:37;;;;;;;8.57;4.85;;;;;;;23.46;53.14;98309.81;10536997;27;20063;-55
2023/09/06 08:50:37;;;;;;;8.30;5.13;;;;;;;23.57;52.38;98310.22;10532119;27;20576;-55
2023/09/06 08:55:37;;;;;;;6.70;4.97;;;;;;;23.19;51.76;98302.16;10531257;27;20053;-55
2023/09/06 09:00:38;;;;;;;7.70;5.07;;;;;;;23.30;53.16;98308.78;10533236;27;20058;-55
2023/09/06 09:05:37;;;;;;;7.90;5.18;;;;;;;23.29;52.76;98301.78;10534506;27;20065;-55
2023/09/06 09:10:36;;;;;;;10.73;6.00;;;;;;;23.32;53.00;98294.53;10515317;27;20066;-55
2023/09/06 09:15:35;;;;;;;7.60;4.90;;;;;;;22.46;52.80;98247.91;10532812;27;20041;-56
2023/09/06 09:20:37;;;;;;;9.60;5.15;;;;;;;23.01;53.18;98298.53;10536150;27;20068;-56
2023/09/06 09:25:46;;;;;;;7.47;4.82;;;;;;;22.84;53.07;98290.44;10500284;27;20204;-56
2023/09/06 09:30:48;;;;;;;8.32;5.38;;;;;;;22.90;52.98;98286.66;10530709;27;20814;-56
2023/09/06 09:35:47;;;;;;;11.35;5.03;;;;;;;23.29;54.03;98291.19;10533075;27;20058;-55
2023/09/06 09:41:04;;;;;;;6.90;4.82;;;;;;;23.15;51.93;98284.69;10533756;27;20035;-55
2023/09/06 09:46:04;;;;;;;7.75;4.97;;;;;;;23.29;52.99;98270.84;10531456;27;20070;-56
2023/09/06 09:51:07;;;;;;;8.48;4.85;;;;;;;23.86;52.28;98273.59;10532063;27;20050;-55
2023/09/06 09:56:07;;;;;;;9.30;6.15;;;;;;;24.05;51.03;98268.28;10531077;27;20138;-55
2023/09/06 10:01:08;;;;;;;10.20;5.32;;;;;;;24.46;50.43;98276.06;10528196;27;20050;-55
2023/09/06 10:06:10;;;;;;;9.60;5.50;;;;;;;24.67;50.27;98223.72;10532514;27;20059;-56
2023/09/06 10:11:11;;;;;;;9.25;5.18;;;;;;;25.10;49.79;98248.06;10494074;27;20603;-56
2023/09/06 10:16:10;;;;;;;8.68;5.53;;;;;;;25.45;49.16;98246.22;10526702;27;20641;-56
2023/09/06 10:21:11;;;;;;;7.00;5.40;;;;;;;25.77;48.16;98254.28;10503872;27;20055;-56
2023/09/06 10:26:10;;;;;;;7.32;5.35;;;;;;;25.38;47.21;98254.59;10538625;27;20055;-56
2023/09/06 10:31:12;;;;;;;8.77;5.13;;;;;;;25.27;47.86;98242.75;10541881;27;20062;-56
2023/09/06 10:36:16;;;;;;;7.78;5.22;;;;;;;25.57;47.25;98238.56;10540003;27;20054;-56
2023/09/06 10:41:15;;;;;;;7.10;5.00;;;;;;;25.86;48.43;98192.63;10537886;27;20474;-56
2023/09/06 10:46:18;;;;;;;11.65;5.85;;;;;;;26.81;47.14;98238.63;10509026;27;20525;-56
2023/09/06 10:51:18;;;;;;;11.30;5.97;;;;;;;27.25;44.46;98224.47;10541057;27;20067;-56
2023/09/06 10:56:27;;;;;;;6.45;4.88;;;;;;;27.47;44.59;98242.69;10537905;27;20050;-56
2023/09/06 11:01:26;;;;;;;6.60;5.38;;;;;;;27.57;42.51;98211.84;10533607;27;20058;-56
2023/09/06 11:06:26;;;;;;;7.38;4.80;;;;;;;27.92;43.72;98228.25;10510237;27;20043;-56
2023/09/06 11:11:26;;;;;;;7.95;5.15;;;;;;;27.93;41.93;98221.13;10534487;27;20078;-58
2023/09/06 11:16:25;;;;;;;8.18;5.82;;;;;;;27.67;41.09;98217.44;10504890;27;20074;-56
2023/09/06 11:21:24;;;;;;;9.52;7.32;;;;;;;27.09;42.91;98211.22;10507728;27;20129;-56
2023/09/06 11:26:23;;;;;;;10.68;6.13;;;;;;;26.85;41.95;98202.94;10534527;27;20066;-56
2023/09/06 11:31:25;;;;;;;7.40;5.63;;;;;;;26.76;42.69;98196.31;10529531;27;20031;-56
2023/09/06 11:36:32;;;;;;;9.75;6.20;;;;;;;26.68;42.90;98193.28;10538571;27;20477;-56
2023/09/06 11:41:31;;;;;;;12.68;6.95;;;;;;;26.36;43.95;98185.38;10532217;27;20062;-56
2023/09/06 11:46:31;;;;;;;8.93;6.40;;;;;;;26.84;43.45;98186.09;10527264;27;20054;-56
2023/09/06 11:51:32;;;;;;;12.45;7.00;;;;;;;26.87;42.90;98161.94;10535956;27;20050;-56
2023/09/06 11:56:36;;;;;;;9.70;7.20;;;;;;;26.77;42.33;98169.59;10535001;27;20066;-56
2023/09/06 12:01:44;;;;;;;8.82;6.90;;;;;;;26.76;42.90;98169.69;10509494;27;20066;-56
2023/09/06 12:06:43;;;;;;;10.18;7.22;;;;;;;26.23;43.21;98163.06;10535738;27;20054;-56
2023/09/06 12:11:42;;;;;;;10.57;7.07;;;;;;;26.49;43.06;98148.25;10528779;27;20085;-56
2023/09/06 12:16:41;;;;;;;9.25;7.53;;;;;;;25.87;43.62;98148.28;10534953;27;20038;-56
2023/09/06 12:21:40;;;;;;;30.33;24.55;;;;;;;25.46;43.76;98139.00;10534173;27;20061;-56
2023/09/06 12:26:39;;;;;;;15.48;10.63;;;;;;;25.28;44.83;98132.91;10529206;27;20027;-56
2023/09/06 12:31:38;;;;;;;12.75;9.00;;;;;;;25.40;45.90;98120.72;10511735;27;20118;-56
2023/09/06 12:36:37;;;;;;;14.73;8.60;;;;;;;25.57;45.48;98122.47;10537522;27;20636;-56
2023/09/06 12:41:36;;;;;;;11.02;8.15;;;;;;;25.13;46.58;98124.91;10533821;27;20489;-56
2023/09/06 12:46:35;;;;;;;10.00;8.50;;;;;;;25.28;46.88;98119.59;10515220;27;20027;-56
2023/09/06 12:51:34;;;;;;;14.38;9.05;;;;;;;25.32;46.43;98122.97;10533094;27;20132;-56
2023/09/06 12:56:38;;;;;;;15.13;9.32;;;;;;;24.36;46.58;97946.75;10534443;27;20030;-56
2023/09/06 13:01:37;;;;;;;11.63;8.90;;;;;;;25.27;46.42;98109.06;10500023;27;20062;-56
2023/09/06 13:06:38;;;;;;;13.02;8.98;;;;;;;24.40;45.91;97972.19;10530842;27;20036;-56
2023/09/06 13:11:37;;;;;;;13.18;8.82;;;;;;;25.11;46.03;98069.22;10525764;27;20063;-56
2023/09/06 13:16:36;;;;;;;12.90;9.00;;;;;;;25.19;46.38;98098.88;10533833;27;20055;-56
2023/09/06 13:21:35;;;;;;;13.80;9.70;;;;;;;25.51;46.00;98085.59;10523486;27;20042;-56
2023/09/06 13:26:34;;;;;;;61.40;12.40;;;;;;;25.69;45.56;98084.59;10527234;27;20963;-56
2023/09/06 13:31:33;;;;;;;14.70;10.82;;;;;;;25.58;45.82;98049.78;10534786;27;20397;-56
2023/09/06 13:36:36;;;;;;;13.40;9.82;;;;;;;25.92;44.90;98079.72;10514215;27;20027;-56
2023/09/06 13:41:34;;;;;;;10.85;9.68;;;;;;;25.54;44.27;98064.19;10504724;27;20062;-56
2023/09/06 13:46:34;;;;;;;15.05;10.30;;;;;;;25.47;44.56;98066.31;10516639;27;20101;-56
2023/09/06 13:51:39;;;;;;;13.65;9.85;;;;;;;25.45;44.65;98064.69;10533302;27;20524;-56
2023/09/06 13:56:39;;;;;;;11.45;8.63;;;;;;;25.51;44.53;98067.84;10530390;27;20059;-56
2023/09/06 14:01:38;;;;;;;12.10;9.23;;;;;;;24.79;44.77;97948.84;10532791;27;20062;-56
2023/09/06 14:06:39;;;;;;;11.70;8.88;;;;;;;25.58;44.19;98063.09;10534503;27;20049;-56
2023/09/06 14:11:40;;;;;;;12.82;9.27;;;;;;;24.97;43.74;97970.91;10512931;27;20070;-55
2023/09/06 14:16:43;;;;;;;12.95;8.73;;;;;;;25.14;43.20;98005.31;10531143;27;20051;-56
2023/09/06 14:21:45;;;;;;;12.77;8.65;;;;;;;25.28;43.24;98039.91;10533523;27;20073;-56
2023/09/06 14:26:44;;;;;;;14.88;8.93;;;;;;;25.22;44.02;98047.38;10532984;27;20051;-56
2023/09/06 14:31:43;;;;;;;11.35;8.95;;;;;;;25.13;43.98;98038.13;10481076;27;20046;-55
2023/09/06 14:36:42;;;;;;;17.65;9.50;;;;;;;25.23;43.87;98033.16;10525548;27;20049;-55
2023/09/06 14:41:41;;;;;;;13.73;9.80;;;;;;;25.21;44.80;98027.06;10500924;27;20114;-55
2023/09/06 14:46:43;;;;;;;12.93;9.45;;;;;;;25.23;44.45;98043.78;10525295;27;20023;-55
2023/09/06 14:51:43;;;;;;;12.43;9.40;;;;;;;25.21;44.19;98033.25;10500553;27;20055;-56
2023/09/06 14:56:42;;;;;;;13.52;9.32;;;;;;;25.19;44.12;98036.94;10519495;27;20110;-55
2023/09/06 15:01:41;;;;;;;15.15;9.68;;;;;;;25.13;44.86;98037.25;10523447;27;20689;-56
2023/09/06 15:06:40;;;;;;;13.45;9.40;;;;;;;24.76;44.47;97991.50;10511325;27;20391;-56
2023/09/06 15:11:42;;;;;;;13.85;9.68;;;;;;;24.72;45.19;98040.38;10506121;27;20039;-54
2023/09/06 15:16:42;;;;;;;16.65;9.65;;;;;;;24.74;45.63;98047.31;10518600;27;20680;-56
2023/09/06 15:21:42;;;;;;;12.00;9.20;;;;;;;24.06;45.07;97936.81;10504645;27;20067;-55
2023/09/06 15:26:41;;;;;;;13.57;9.43;;;;;;;24.60;45.62;98047.19;10521295;27;20047;-55
2023/09/06 15:31:41;;;;;;;13.88;9.35;;;;;;;24.39;46.23;98014.69;10529534;27;20027;-56
2023/09/06 15:36:40;;;;;;;12.70;9.60;;;;;;;24.44;46.02;98015.31;10528621;27;20539;-56
2023/09/06 15:41:39;;;;;;;12.35;9.60;;;;;;;24.56;46.88;98022.59;10529813;27;20736;-53
2023/09/06 15:46:38;;;;;;;11.30;8.68;;;;;;;24.62;46.48;98032.91;10526608;27;20030;-54
2023/09/06 15:51:37;;;;;;;16.65;9.98;;;;;;;24.61;47.04;98030.31;10538078;27;20065;-54
2023/09/06 15:56:36;;;;;;;28.40;18.38;;;;;;;24.77;46.98;98060.41;10503401;27;20035;-54
2023/09/06 16:01:35;;;;;;;15.75;11.10;;;;;;;24.70;47.23;98051.06;10513538;27;20035;-54
2023/09/06 16:06:35;;;;;;;16.27;10.35;;;;;;;24.57;47.72;98052.66;10527308;27;20110;-54
2023/09/06 16:11:35;;;;;;;15.43;10.02;;;;;;;24.37;48.21;98059.00;10526458;27;20902;-54
2023/09/06 16:16:35;;;;;;;18.90;11.00;;;;;;;24.32;47.87;98050.44;10533429;27;20050;-54
2023/09/06 16:21:34;;;;;;;21.05;11.35;;;;;;;24.00;48.54;98026.41;10534444;27;20058;-54
2023/09/06 16:26:33;;;;;;;16.55;11.18;;;;;;;23.71;48.87;97991.63;10530822;27;20045;-55
2023/09/06 16:31:32;;;;;;;16.05;11.43;;;;;;;24.10;49.60;98066.53;10538763;27;20018;-55
2023/09/06 16:36:32;;;;;;;18.65;12.27;;;;;;;24.01;50.74;98073.19;10520093;27;20119;-55
2023/09/06 16:41:31;;;;;;;17.60;11.95;;;;;;;23.91;51.51;98078.09;10531312;27;20050;-55
2023/09/06 16:46:30;;;;;;;18.08;12.02;;;;;;;23.83;52.69;98078.47;10531896;27;20046;-55
2023/09/06 16:51:29;;;;;;;20.38;13.35;;;;;;;23.69;53.63;98096.00;10534767;27;20033;-55
2023/09/06 16:56:28;;;;;;;19.00;13.48;;;;;;;23.58;54.91;98096.50;10504684;27;21663;-55
2023/09/06 17:01:27;;;;;;;20.73;14.40;;;;;;;23.45;55.52;98101.50;10532896;27;20540;-55
2023/09/06 17:06:26;;;;;;;20.73;15.10;;;;;;;23.35;56.02;98116.97;10531748;27;20460;-55
2023/09/06 17:11:26;;;;;;;23.88;14.85;;;;;;;23.15;57.01;98104.66;10516783;27;20604;-55
2023/09/06 17:16:25;;;;;;;23.90;14.60;;;;;;;23.00;58.10;98108.88;10531379;27;20049;-55
2023/09/06 17:21:25;;;;;;;19.25;13.73;;;;;;;21.64;58.39;97912.19;10533345;27;20027;-55
2023/09/06 17:26:24;;;;;;;21.30;13.35;;;;;;;22.69;58.61;98112.00;10533611;27;20110;-53
2023/09/06 17:31:23;;;;;;;18.65;12.93;;;;;;;22.51;59.13;98112.84;10530941;27;20042;-53
2023/09/06 17:36:25;;;;;;;18.90;12.68;;;;;;;22.32;59.81;98121.56;10526989;27;20046;-55
2023/09/06 17:41:24;;;;;;;20.38;12.95;;;;;;;21.75;60.65;98062.25;10531081;27;20051;-54
2023/09/06 17:46:25;;;;;;;15.82;12.07;;;;;;;21.94;60.99;98129.28;10523841;27;20647;-54
2023/09/06 17:51:25;;;;;;;17.52;13.07;;;;;;;21.73;61.85;98130.13;10519488;27;20050;-54
2023/09/06 17:56:26;;;;;;;18.42;13.73;;;;;;;21.50;63.01;98134.56;10529864;27;20047;-54
2023/09/06 18:01:25;;;;;;;18.98;14.13;;;;;;;21.40;63.36;98150.81;10520294;27;20110;-55
2023/09/06 18:06:25;;;;;;;23.30;14.85;;;;;;;21.30;63.91;98152.94;10501882;27;20054;-55
2023/09/06 18:11:24;;;;;;;21.73;14.90;;;;;;;21.24;64.12;98163.72;10528862;27;20130;-55
2023/09/06 18:16:23;;;;;;;20.63;15.45;;;;;;;20.98;64.69;98125.09;10531619;27;20047;-54
2023/09/06 18:21:22;;;;;;;23.00;14.57;;;;;;;20.85;65.39;98130.81;10534425;27;20027;-54
2023/09/06 18:26:21;;;;;;;16.13;12.88;;;;;;;20.63;65.86;98072.75;10531441;27;20088;-54
2023/09/06 18:31:21;;;;;;;20.10;14.00;;;;;;;20.86;65.65;98113.22;10530776;27;20054;-54
2023/09/06 18:36:19;;;;;;;21.92;13.52;;;;;;;20.69;66.10;98082.19;10533516;27;20047;-54
2023/09/06 18:41:19;;;;;;;17.92;12.80;;;;;;;20.94;66.29;98124.34;10533403;27;20110;-55
2023/09/06 18:46:18;;;;;;;18.17;13.68;;;;;;;21.14;65.95;98158.75;10525517;27;20114;-54
2023/09/06 18:51:18;;;;;;;27.58;14.55;;;;;;;21.18;66.47;98153.38;10508981;27;20134;-54
2023/09/06 18:56:17;;;;;;;21.67;14.93;;;;;;;21.14;67.17;98147.34;10542105;27;20038;-54
2023/09/06 19:01:17;;;;;;;18.25;14.70;;;;;;;20.99;68.05;98132.09;10539075;27;20046;-54
2023/09/06 19:06:16;;;;;;;19.23;14.13;;;;;;;20.31;68.45;98025.56;10537306;27;20051;-54
2023/09/06 19:11:15;;;;;;;21.02;14.45;;;;;;;21.09;67.98;98160.72;10534995;27;20075;-55
2023/09/06 19:16:14;;;;;;;20.33;13.88;;;;;;;21.09;68.25;98158.06;10540647;27;20041;-54
2023/09/06 19:21:13;;;;;;;18.38;12.90;;;;;;;21.09;68.64;98155.44;10512526;27;20035;-54
2023/09/06 19:26:12;;;;;;;22.35;14.15;;;;;;;21.12;68.55;98160.63;10536427;27;20412;-54
2023/09/06 19:31:11;;;;;;;18.73;12.02;;;;;;;21.00;67.77;98137.31;10512481;27;20039;-54
2023/09/06 19:36:10;;;;;;;15.15;11.55;;;;;;;21.02;67.41;98153.09;10531021;27;20023;-54
2023/09/06 19:41:09;;;;;;;15.23;11.30;;;;;;;21.13;67.50;98164.09;10526980;27;20526;-54
2023/09/06 19:46:07;;;;;;;18.58;11.32;;;;;;;21.13;67.76;98162.31;10513291;27;20399;-54
2023/09/06 19:51:06;;;;;;;14.82;11.18;;;;;;;20.98;67.38;98136.50;10539771;27;20043;-54
2023/09/06 19:56:12;;;;;;;13.57;10.52;;;;;;;21.18;67.45;98163.94;10527202;27;20088;-54
2023/09/06 20:01:11;;;;;;;15.50;11.35;;;;;;;21.21;67.28;98169.13;10526388;27;20051;-54
2023/09/06 20:06:10;;;;;;;16.17;11.10;;;;;;;21.25;67.41;98171.59;10509466;27;20039;-54
2023/09/06 20:11:09;;;;;;;16.30;11.30;;;;;;;21.25;66.93;98162.81;10528344;27;20565;-54
2023/09/06 20:16:08;;;;;;;14.65;11.85;;;;;;;21.21;66.94;98166.50;10531856;27;20046;-54
2023/09/06 20:21:07;;;;;;;14.57;11.20;;;;;;;21.24;67.27;98164.59;10507100;27;20121;-54
2023/09/06 20:26:06;;;;;;;15.25;10.80;;;;;;;21.19;67.67;98173.56;10541204;27;20031;-53
2023/09/06 20:31:07;;;;;;;15.23;11.77;;;;;;;21.20;67.71;98172.66;10536332;27;20027;-54
2023/09/06 20:36:06;;;;;;;16.48;12.65;;;;;;;21.07;68.53;98154.63;10529690;27;20061;-54
2023/09/06 20:41:07;;;;;;;18.98;12.73;;;;;;;21.17;67.78;98173.63;10537652;27;20073;-55
2023/09/06 20:46:06;;;;;;;20.65;13.15;;;;;;;20.99;68.07;98135.59;10536273;27;20050;-54
2023/09/06 20:51:07;;;;;;;16.50;12.70;;;;;;;20.94;68.18;98134.91;10534548;27;20030;-54
2023/09/06 20:56:07;;;;;;;17.67;11.07;;;;;;;21.07;67.38;98162.53;10523308;27;20643;-55
2023/09/06 21:01:20;;;;;;;15.50;11.88;;;;;;;21.13;67.56;98172.88;10512770;27;20489;-54
2023/09/06 21:06:19;;;;;;;16.60;12.00;;;;;;;21.12;67.73;98165.91;10529880;27;20556;-54
2023/09/06 21:11:18;;;;;;;14.15;11.52;;;;;;;21.11;67.90;98168.59;10521906;27;20800;-54
2023/09/06 21:16:17;;;;;;;17.13;12.30;;;;;;;20.82;68.62;98122.16;10500454;27;20134;-55
2023/09/06 21:21:16;;;;;;;15.00;12.27;;;;;;;21.01;69.48;98170.69;10535804;27;20106;-54
2023/09/06 21:26:15;;;;;;;16.20;12.55;;;;;;;20.91;69.79;98167.53;10530641;27;21546;-54
2023/09/06 21:31:14;;;;;;;15.73;12.07;;;;;;;20.93;69.33;98165.69;10516071;27;20024;-54
2023/09/06 21:36:13;;;;;;;17.33;12.77;;;;;;;20.92;70.05;98171.03;10513451;27;20027;-54
2023/09/06 21:41:12;;;;;;;14.90;12.07;;;;;;;20.96;69.64;98174.41;10532399;27;20019;-54
2023/09/06 21:46:11;;;;;;;16.83;12.88;;;;;;;20.70;70.70;98126.97;10527509;27;20033;-55
2023/09/06 21:51:15;;;;;;;12.18;8.60;;;;;;;20.66;67.09;98157.00;10528345;27;21548;-54
2023/09/06 21:56:14;;;;;;;10.43;8.68;;;;;;;20.77;67.18;98175.06;10525053;27;20055;-54
2023/09/06 22:01:13;;;;;;;11.20;9.02;;;;;;;20.56;66.78;98128.34;10528701;27;20027;-54
2023/09/06 22:06:12;;;;;;;12.23;9.23;;;;;;;20.86;66.06;98169.47;10533506;27;20505;-54
2023/09/06 22:11:11;;;;;;;15.40;10.73;;;;;;;20.87;66.21;98176.47;10504449;27;20043;-54
2023/09/06 22:16:10;;;;;;;11.57;9.68;;;;;;;20.86;66.46;98173.88;10513798;27;20125;-54
2023/09/06 22:21:09;;;;;;;11.40;9.40;;;;;;;20.71;65.96;98144.50;10535206;27;20690;-55
2023/09/06 22:26:08;;;;;;;13.55;9.50;;;;;;;20.88;66.07;98166.78;10526432;27;20605;-54
2023/09/06 22:31:07;;;;;;;12.63;8.38;;;;;;;20.67;65.93;98131.47;10507697;27;20125;-54
2023/09/06 22:36:06;;;;;;;16.50;9.20;;;;;;;20.85;65.39;98170.38;10539962;27;20053;-54
2023/09/06 22:41:05;;;;;;;13.13;9.25;;;;;;;19.72;65.20;97987.19;10538093;27;20031;-54
2023/09/06 22:46:04;;;;;;;14.55;10.00;;;;;;;20.64;66.58;98145.63;10532514;27;20838;-54
2023/09/06 22:51:03;;;;;;;14.40;10.10;;;;;;;20.67;67.45;98158.72;10525151;27;20055;-54
2023/09/06 22:56:03;;;;;;;16.17;10.48;;;;;;;20.69;68.08;98156.03;10537726;27;20034;-54
2023/09/06 23:01:06;;;;;;;13.18;9.82;;;;;;;20.68;68.23;98165.72;10539360;27;20047;-56
2023/09/06 23:06:09;;;;;;;12.05;9.02;;;;;;;20.54;68.24;98141.63;10545070;27;20051;-54
2023/09/06 23:11:08;;;;;;;13.60;9.40;;;;;;;20.56;67.65;98152.09;10538441;27;20500;-54
2023/09/06 23:16:09;;;;;;;12.85;8.80;;;;;;;20.45;67.22;98150.69;10541494;27;20517;-54
2023/09/06 23:21:10;;;;;;;14.88;9.60;;;;;;;20.39;67.22;98142.97;10542649;27;20058;-54
2023/09/06 23:26:12;;;;;;;14.50;8.50;;;;;;;20.36;67.19;98148.34;10543219;27;20071;-54
2023/09/06 23:31:16;;;;;;;19.05;9.73;;;;;;;20.44;67.05;98148.09;10541328;27;20051;-54
2023/09/06 23:36:17;;;;;;;11.60;8.52;;;;;;;20.31;66.86;98133.63;10495591;28;20051;-54
2023/09/06 23:41:17;;;;;;;11.13;8.18;;;;;;;20.41;66.33;98154.34;10496336;27;20063;-54
2023/09/06 23:46:19;;;;;;;12.13;7.65;;;;;;;20.31;65.87;98138.88;10510985;27;20070;-54
2023/09/06 23:51:19;;;;;;;12.07;8.93;;;;;;;20.41;66.14;98156.13;10519738;27;20063;-54
2023/09/06 23:56:18;;;;;;;13.85;8.60;;;;;;;20.42;66.23;98152.56;10544932;27;20051;-54
